createdAt,value
2023-02-08T00:01:18.244Z,101286.69
2023-02-08T00:03:46.685Z,101282.78
2023-02-08T00:06:15.097Z,101280.91
2023-02-08T00:08:43.338Z,101292.03
2023-02-08T00:11:11.974Z,101285.31
2023-02-08T00:13:42.081Z,101292.81
2023-02-08T00:16:13.884Z,101300.78
2023-02-08T00:18:42.402Z,101304.50
2023-02-08T00:21:14.892Z,101306.56
2023-02-08T00:23:43.121Z,101310.25
2023-02-08T00:26:11.649Z,101305.41
2023-02-08T00:28:39.901Z,101310.72
2023-02-08T00:31:08.560Z,101314.97
2023-02-08T00:33:38.198Z,101309.66
2023-02-08T00:36:08.903Z,101312.19
2023-02-08T00:38:37.682Z,101317.50
2023-02-08T00:41:06.314Z,101326.28
2023-02-08T00:43:34.670Z,101326.75
2023-02-08T00:46:02.794Z,101329.19
2023-02-08T00:48:31.823Z,101324.69
2023-02-08T00:51:06.717Z,101334.25
2023-02-08T00:53:38.308Z,101338.78
2023-02-08T00:56:07.363Z,101341.28
2023-02-08T00:58:36.286Z,101340.03
2023-02-08T01:01:06.167Z,101339.44
2023-02-08T01:03:35.787Z,101335.41
2023-02-08T01:06:07.999Z,101337.47
2023-02-08T01:08:36.256Z,101326.91
2023-02-08T01:11:07.042Z,101327.16
2023-02-08T01:13:35.370Z,101332.53
2023-02-08T01:16:12.755Z,101323.75
2023-02-08T01:18:41.456Z,101328.03
2023-02-08T01:21:13.308Z,101331.28
2023-02-08T01:23:41.769Z,101329.31
2023-02-08T01:26:11.374Z,101332.97
2023-02-08T01:28:40.224Z,101334.38
2023-02-08T01:31:10.086Z,101331.72
2023-02-08T01:33:38.712Z,101336.53
2023-02-08T01:36:07.830Z,101328.59
2023-02-08T01:38:38.242Z,101332.09
2023-02-08T01:41:26.613Z,101327.81
2023-02-08T01:44:07.298Z,101337.84
2023-02-08T01:46:37.060Z,101339.13
2023-02-08T01:49:09.412Z,101337.03
2023-02-08T01:51:41.843Z,101337.47
2023-02-08T01:54:14.209Z,101346.72
2023-02-08T01:56:46.263Z,101345.47
2023-02-08T01:59:19.213Z,101344.06
2023-02-08T02:01:49.910Z,101349.16
2023-02-08T02:04:18.196Z,101353.66
2023-02-08T02:06:50.027Z,101347.53
2023-02-08T02:09:25.888Z,101348.56
2023-02-08T02:11:55.713Z,101346.34
2023-02-08T02:14:24.701Z,101350.63
2023-02-08T02:16:52.771Z,101347.16
2023-02-08T02:19:30.534Z,101350.47
2023-02-08T02:22:09.080Z,101350.91
2023-02-08T02:25:06.603Z,101363.63
2023-02-08T02:27:50.067Z,101358.38
2023-02-08T02:30:53.373Z,101365.53
2023-02-08T02:33:54.854Z,101360.66
2023-02-08T02:36:34.638Z,101360.88
2023-02-08T02:39:15.049Z,101368.28
2023-02-08T02:42:12.570Z,101369.53
2023-02-08T02:44:51.948Z,101377.09
2023-02-08T02:47:29.944Z,101378.50
2023-02-08T02:50:05.678Z,101379.41
2023-02-08T02:52:41.941Z,101386.34
2023-02-08T02:55:13.448Z,101385.31
2023-02-08T02:57:45.065Z,101391.06
2023-02-08T03:00:20.702Z,101394.59
2023-02-08T03:02:49.075Z,101389.50
2023-02-08T03:05:18.901Z,101399.50
2023-02-08T03:08:08.603Z,101401.81
2023-02-08T03:10:51.389Z,101399.50
2023-02-08T03:13:30.972Z,101404.66
2023-02-08T03:16:12.704Z,101405.72
2023-02-08T03:18:54.167Z,101407.75
2023-02-08T03:21:34.018Z,101418.63
2023-02-08T03:24:07.130Z,101414.75
2023-02-08T03:26:39.713Z,101413.56
2023-02-08T03:29:16.097Z,101416.22
2023-02-08T03:31:49.181Z,101418.28
2023-02-08T03:34:23.947Z,101420.38
2023-02-08T03:36:57.257Z,101432.44
2023-02-08T03:39:29.471Z,101421.03
2023-02-08T03:42:01.418Z,101432.63
2023-02-08T03:44:35.353Z,101428.72
2023-02-08T03:47:09.386Z,101433.28
2023-02-08T03:49:39.191Z,101429.41
2023-02-08T03:52:11.574Z,101433.88
2023-02-08T03:54:45.127Z,101433.72
2023-02-08T03:57:19.189Z,101433.84
2023-02-08T03:59:53.168Z,101433.16
2023-02-08T04:02:25.022Z,101436.00
2023-02-08T04:04:54.686Z,101438.66
2023-02-08T04:07:24.205Z,101443.75
2023-02-08T04:09:52.248Z,101449.06
2023-02-08T04:12:20.493Z,101447.03
2023-02-08T04:14:48.750Z,101449.34
2023-02-08T04:17:16.864Z,101450.13
2023-02-08T04:19:44.987Z,101455.06
2023-02-08T04:22:13.103Z,101455.72
2023-02-08T04:24:42.643Z,101453.66
2023-02-08T04:27:10.777Z,101454.25
2023-02-08T04:29:38.932Z,101451.22
2023-02-08T04:32:11.624Z,101455.50
2023-02-08T04:34:39.969Z,101466.69
2023-02-08T04:37:08.741Z,101463.84
2023-02-08T04:39:36.890Z,101463.84
2023-02-08T04:42:06.640Z,101472.41
2023-02-08T04:44:34.913Z,101472.25
2023-02-08T04:47:03.177Z,101474.25
2023-02-08T04:49:31.377Z,101470.34
2023-02-08T04:51:59.645Z,101484.28
2023-02-08T04:54:27.848Z,101487.94
2023-02-08T04:56:55.974Z,101495.75
2023-02-08T04:59:25.634Z,101495.97
2023-02-08T05:01:53.724Z,101498.63
2023-02-08T05:04:22.037Z,101503.06
2023-02-08T05:06:50.099Z,101501.06
2023-02-08T05:09:18.161Z,101498.63
2023-02-08T05:11:47.067Z,101509.19
2023-02-08T05:14:15.204Z,101511.63
2023-02-08T05:16:44.782Z,101515.66
2023-02-08T05:19:13.565Z,101508.72
2023-02-08T05:21:41.723Z,101513.41
2023-02-08T05:24:12.953Z,101514.22
2023-02-08T05:26:41.693Z,101514.22
2023-02-08T05:29:12.009Z,101519.53
2023-02-08T05:31:40.751Z,101524.16
2023-02-08T05:34:10.410Z,101518.06
2023-02-08T05:36:39.001Z,101525.00
2023-02-08T05:39:07.941Z,101518.72
2023-02-08T05:41:36.092Z,101528.06
2023-02-08T05:44:04.289Z,101533.34
2023-02-08T05:46:32.705Z,101529.03
2023-02-08T05:49:00.800Z,101531.44
2023-02-08T05:51:30.363Z,101530.44
2023-02-08T05:53:58.401Z,101539.38
2023-02-08T05:56:27.686Z,101538.50
2023-02-08T05:58:56.402Z,101539.13
2023-02-08T06:01:24.732Z,101551.97
2023-02-08T06:03:53.181Z,101560.38
2023-02-08T06:06:21.588Z,101552.41
2023-02-08T06:08:51.057Z,101563.06
2023-02-08T06:11:20.188Z,101563.03
2023-02-08T06:13:48.826Z,101569.34
2023-02-08T06:16:19.877Z,101578.56
2023-02-08T06:18:48.648Z,101576.94
2023-02-08T06:21:16.955Z,101566.16
2023-02-08T06:23:45.329Z,101578.00
2023-02-08T06:26:14.926Z,101571.22
2023-02-08T06:28:43.074Z,101573.84
2023-02-08T06:31:11.168Z,101579.50
2023-02-08T06:33:39.661Z,101574.56
2023-02-08T06:36:08.782Z,101572.34
2023-02-08T06:38:36.836Z,101574.28
2023-02-08T06:41:05.045Z,101570.38
2023-02-08T06:43:34.683Z,101578.97
2023-02-08T06:46:04.933Z,101590.63
2023-02-08T06:48:33.187Z,101579.31
2023-02-08T06:51:01.730Z,101578.16
2023-02-08T06:53:30.172Z,101587.31
2023-02-08T06:55:58.379Z,101595.69
2023-02-08T06:58:26.593Z,101589.03
2023-02-08T07:00:56.371Z,101585.41
2023-02-08T07:03:24.587Z,101593.53
2023-02-08T07:06:04.551Z,101589.53
2023-02-08T07:08:34.166Z,101594.13
2023-02-08T07:11:06.948Z,101604.56
2023-02-08T07:13:35.234Z,101594.72
2023-02-08T07:16:05.294Z,101608.75
2023-02-08T07:18:34.083Z,101608.19
2023-02-08T07:21:02.357Z,101609.66
2023-02-08T07:23:31.435Z,101613.28
2023-02-08T07:26:00.340Z,101622.22
2023-02-08T07:28:29.054Z,101621.19
2023-02-08T07:30:57.360Z,101620.97
2023-02-08T07:33:27.573Z,101621.72
2023-02-08T07:35:55.801Z,101620.47
2023-02-08T07:38:24.027Z,101633.91
2023-02-08T07:40:52.455Z,101633.81
2023-02-08T07:43:20.683Z,101633.22
2023-02-08T07:45:49.299Z,101639.16
2023-02-08T07:48:17.545Z,101636.94
2023-02-08T07:50:47.691Z,101636.94
2023-02-08T07:53:16.088Z,101634.94
2023-02-08T07:55:46.851Z,101633.56
2023-02-08T07:58:15.541Z,101633.94
2023-02-08T08:00:43.836Z,101636.97
2023-02-08T08:03:12.341Z,101627.75
2023-02-08T08:05:42.175Z,101642.00
2023-02-08T08:08:13.229Z,101638.78
2023-02-08T08:10:41.752Z,101636.84
2023-02-08T08:13:10.371Z,101633.94
2023-02-08T08:15:38.603Z,101640.69
2023-02-08T08:18:06.887Z,101636.69
2023-02-08T08:20:35.349Z,101642.72
2023-02-08T08:23:03.774Z,101646.44
2023-02-08T08:25:33.414Z,101642.94
2023-02-08T08:28:03.100Z,101649.16
2023-02-08T08:30:31.316Z,101640.25
2023-02-08T08:32:59.663Z,101642.94
2023-02-08T08:35:27.826Z,101650.56
2023-02-08T08:37:56.130Z,101649.88
2023-02-08T08:40:25.236Z,101650.47
2023-02-08T08:42:54.937Z,101641.75
2023-02-08T08:45:23.200Z,101646.22
2023-02-08T08:47:51.489Z,101653.94
2023-02-08T08:50:20.072Z,101647.47
2023-02-08T08:52:48.400Z,101648.41
2023-02-08T08:55:16.679Z,101655.97
2023-02-08T08:57:44.864Z,101652.72
2023-02-08T09:00:15.910Z,101647.97
2023-02-08T09:02:44.171Z,101650.31
2023-02-08T09:05:12.358Z,101646.13
2023-02-08T09:07:40.689Z,101654.63
2023-02-08T09:10:09.195Z,101658.44
2023-02-08T09:12:37.568Z,101656.00
2023-02-08T09:15:06.656Z,101654.16
2023-02-08T09:17:36.335Z,101662.03
2023-02-08T09:20:04.975Z,101670.97
2023-02-08T09:22:33.389Z,101660.75
2023-02-08T09:25:02.219Z,101669.47
2023-02-08T09:27:30.535Z,101671.34
2023-02-08T09:30:01.988Z,101668.06
2023-02-08T09:32:34.122Z,101674.69
2023-02-08T09:35:04.080Z,101673.41
2023-02-08T09:37:32.265Z,101661.41
2023-02-08T09:40:01.813Z,101658.56
2023-02-08T09:42:36.074Z,101658.31
2023-02-08T09:45:27.814Z,101655.28
2023-02-08T09:48:02.027Z,101657.00
2023-02-08T09:50:35.414Z,101656.16
2023-02-08T09:53:10.909Z,101646.84
2023-02-08T09:55:42.783Z,101652.63
2023-02-08T09:58:21.134Z,101651.44
2023-02-08T10:00:53.503Z,101649.06
2023-02-08T10:03:45.100Z,101645.03
2023-02-08T10:06:17.140Z,101650.72
2023-02-08T10:08:47.229Z,101634.81
2023-02-08T10:11:43.467Z,101641.63
2023-02-08T10:14:38.522Z,101633.81
2023-02-08T10:17:20.481Z,101639.28
2023-02-08T10:20:03.743Z,101633.34
2023-02-08T10:22:46.735Z,101629.44
2023-02-08T10:25:38.898Z,101638.03
2023-02-08T10:28:30.805Z,101628.06
2023-02-08T10:31:10.460Z,101619.84
2023-02-08T10:33:49.408Z,101620.56
2023-02-08T10:36:25.926Z,101624.00
2023-02-08T10:39:00.107Z,101614.53
2023-02-08T10:41:40.143Z,101615.72
2023-02-08T10:44:27.584Z,101620.03
2023-02-08T10:47:14.837Z,101621.25
2023-02-08T10:49:53.339Z,101618.47
2023-02-08T10:52:24.678Z,101615.91
2023-02-08T10:54:54.840Z,101614.25
2023-02-08T10:57:27.332Z,101607.06
2023-02-08T11:00:04.678Z,101615.72
2023-02-08T11:02:47.945Z,101622.06
2023-02-08T11:05:19.206Z,101618.22
2023-02-08T11:07:51.720Z,101614.50
2023-02-08T11:10:29.406Z,101610.03
2023-02-08T11:13:02.921Z,101602.75
2023-02-08T11:15:43.136Z,101608.44
2023-02-08T11:18:26.899Z,101601.94
2023-02-08T11:20:58.505Z,101599.25
2023-02-08T11:23:30.050Z,101607.63
2023-02-08T11:26:17.740Z,101602.16
2023-02-08T11:28:48.677Z,101593.63
2023-02-08T11:31:29.735Z,101601.59
2023-02-08T11:34:05.144Z,101599.06
2023-02-08T11:36:51.022Z,101591.88
2023-02-08T11:39:25.126Z,101588.75
2023-02-08T11:41:59.157Z,101586.69
2023-02-08T11:44:33.004Z,101590.25
2023-02-08T11:47:04.545Z,101582.19
2023-02-08T11:49:38.634Z,101586.31
2023-02-08T11:52:09.257Z,101591.91
2023-02-08T11:54:41.494Z,101580.22
2023-02-08T11:57:17.631Z,101585.63
2023-02-08T11:59:46.910Z,101582.56
2023-02-08T12:02:36.142Z,101586.38
2023-02-08T12:05:06.119Z,101591.25
2023-02-08T12:07:46.496Z,101584.72
2023-02-08T12:10:57.119Z,101597.94
2023-02-08T12:13:48.158Z,101589.34
2023-02-08T12:16:45.434Z,101590.22
2023-02-08T12:19:38.565Z,101600.41
2023-02-08T12:22:12.322Z,101589.41
2023-02-08T12:24:50.903Z,101599.34
2023-02-08T12:27:41.252Z,101594.28
2023-02-08T12:30:22.709Z,101596.03
2023-02-08T12:33:17.245Z,101592.25
2023-02-08T12:36:18.164Z,101590.81
2023-02-08T12:39:26.445Z,101589.94
2023-02-08T12:42:20.859Z,101594.28
2023-02-08T12:45:06.769Z,101590.03
2023-02-08T12:48:03.646Z,101586.78
2023-02-08T12:50:42.936Z,101581.31
2023-02-08T12:53:19.368Z,101583.41
2023-02-08T12:55:50.121Z,101580.66
2023-02-08T12:58:29.576Z,101585.59
2023-02-08T13:01:01.698Z,101577.53
2023-02-08T13:03:40.580Z,101576.25
2023-02-08T13:06:15.030Z,101578.81
2023-02-08T13:08:49.157Z,101578.78
2023-02-08T13:11:26.805Z,101585.78
2023-02-08T13:14:02.137Z,101589.84
2023-02-08T13:16:35.598Z,101586.13
2023-02-08T13:19:25.676Z,101586.94
2023-02-08T13:21:56.304Z,101594.03
2023-02-08T13:24:30.762Z,101588.97
2023-02-08T13:26:58.843Z,101587.69
2023-02-08T13:29:29.681Z,101584.44
2023-02-08T13:32:03.394Z,101585.81
2023-02-08T13:34:37.357Z,101592.16
2023-02-08T13:37:25.102Z,101594.78
2023-02-08T13:40:04.057Z,101592.00
2023-02-08T13:42:37.984Z,101589.19
2023-02-08T13:45:10.347Z,101590.13
2023-02-08T13:47:45.269Z,101598.44
2023-02-08T13:50:46.166Z,101584.50
2023-02-08T13:53:17.509Z,101593.94
2023-02-08T13:56:01.986Z,101586.94
2023-02-08T13:58:38.526Z,101587.59
2023-02-08T14:01:20.125Z,101579.81
2023-02-08T14:04:28.312Z,101588.91
2023-02-08T14:07:06.324Z,101590.91
2023-02-08T14:09:48.256Z,101599.03
2023-02-08T14:12:25.131Z,101593.97
2023-02-08T14:15:26.054Z,101589.69
2023-02-08T14:17:58.444Z,101585.97
2023-02-08T14:20:32.179Z,101590.59
2023-02-08T14:23:04.225Z,101595.44
2023-02-08T14:25:42.026Z,101596.94
2023-02-08T14:28:30.857Z,101595.03
2023-02-08T14:31:02.189Z,101594.75
2023-02-08T14:33:34.785Z,101604.88
2023-02-08T14:36:06.160Z,101602.13
2023-02-08T14:39:06.561Z,101598.22
2023-02-08T14:41:50.459Z,101603.72
2023-02-08T14:44:55.247Z,101603.78
2023-02-08T14:48:08.060Z,101603.84
2023-02-08T14:50:44.554Z,101602.28
2023-02-08T14:53:27.185Z,101611.94
2023-02-08T14:56:02.300Z,101610.19
2023-02-08T14:58:34.216Z,101608.59
2023-02-08T15:01:07.476Z,101614.22
2023-02-08T15:03:37.132Z,101618.28
2023-02-08T15:06:30.932Z,101615.22
2023-02-08T15:08:59.777Z,101617.28
2023-02-08T15:11:32.411Z,101612.78
2023-02-08T15:14:04.771Z,101625.03
2023-02-08T15:16:37.777Z,101623.50
2023-02-08T15:19:08.771Z,101624.16
2023-02-08T15:21:39.038Z,101622.84
2023-02-08T15:24:16.241Z,101625.28
2023-02-08T15:26:51.269Z,101631.84
2023-02-08T15:29:24.632Z,101633.13
2023-02-08T15:31:56.324Z,101648.19
2023-02-08T15:34:27.217Z,101645.50
2023-02-08T15:36:57.634Z,101659.78
2023-02-08T15:39:34.086Z,101661.53
2023-02-08T15:42:03.792Z,101655.78
2023-02-08T15:44:34.054Z,101656.53
2023-02-08T15:47:05.659Z,101653.41
2023-02-08T15:49:37.026Z,101654.00
2023-02-08T15:52:07.471Z,101658.53
2023-02-08T15:54:36.181Z,101663.06
2023-02-08T15:57:09.466Z,101664.59
2023-02-08T15:59:41.300Z,101665.97
2023-02-08T16:02:24.146Z,101669.22
2023-02-08T16:04:52.404Z,101669.22
2023-02-08T16:07:27.127Z,101675.16
2023-02-08T16:09:56.446Z,101667.25
2023-02-08T16:12:28.208Z,101673.31
2023-02-08T16:14:57.388Z,101677.13
2023-02-08T16:17:44.850Z,101671.78
2023-02-08T16:20:24.364Z,101683.72
2023-02-08T16:22:57.958Z,101681.88
2023-02-08T16:25:35.636Z,101681.84
2023-02-08T16:28:07.332Z,101693.75
2023-02-08T16:30:35.996Z,101698.38
2023-02-08T16:33:09.305Z,101717.38
2023-02-08T16:35:41.046Z,101706.19
2023-02-08T16:38:11.776Z,101714.53
2023-02-08T16:40:49.145Z,101714.06
2023-02-08T16:43:23.684Z,101720.13
2023-02-08T16:46:23.947Z,101718.94
2023-02-08T16:48:55.063Z,101710.47
2023-02-08T16:51:27.104Z,101711.88
2023-02-08T16:53:58.660Z,101716.19
2023-02-08T16:56:27.414Z,101718.31
2023-02-08T16:58:59.910Z,101729.56
2023-02-08T17:01:32.122Z,101730.47
2023-02-08T17:04:00.930Z,101743.06
2023-02-08T17:06:32.621Z,101745.00
2023-02-08T17:09:02.354Z,101742.47
2023-02-08T17:11:30.970Z,101737.81
2023-02-08T17:14:00.943Z,101746.69
2023-02-08T17:16:31.408Z,101750.72
2023-02-08T17:19:00.512Z,101751.53
2023-02-08T17:21:29.437Z,101746.88
2023-02-08T17:23:58.646Z,101757.09
2023-02-08T17:26:29.304Z,101757.09
2023-02-08T17:28:59.232Z,101758.34
2023-02-08T17:31:29.795Z,101761.31
2023-02-08T17:34:04.171Z,101749.91
2023-02-08T17:36:32.985Z,101757.31
2023-02-08T17:39:01.349Z,101758.63
2023-02-08T17:41:29.821Z,101759.53
2023-02-08T17:43:58.973Z,101748.22
2023-02-08T17:46:31.543Z,101764.97
2023-02-08T17:49:01.915Z,101768.97
2023-02-08T17:51:30.554Z,101758.53
2023-02-08T17:53:58.703Z,101764.53
2023-02-08T17:56:29.322Z,101763.00
2023-02-08T17:59:00.865Z,101763.22
2023-02-08T18:01:30.993Z,101761.06
2023-02-08T18:04:01.899Z,101758.00
2023-02-08T18:06:30.126Z,101768.44
2023-02-08T18:08:58.224Z,101768.47
2023-02-08T18:11:26.399Z,101761.09
2023-02-08T18:13:55.778Z,101769.38
2023-02-08T18:16:26.867Z,101761.88
2023-02-08T18:18:59.374Z,101766.25
2023-02-08T18:21:30.247Z,101759.44
2023-02-08T18:24:03.501Z,101767.78
2023-02-08T18:26:34.434Z,101764.09
2023-02-08T18:29:03.710Z,101773.59
2023-02-08T18:31:32.669Z,101769.47
2023-02-08T18:34:02.939Z,101763.00
2023-02-08T18:36:31.512Z,101765.28
2023-02-08T18:39:00.206Z,101771.53
2023-02-08T18:41:30.822Z,101775.03
2023-02-08T18:44:00.494Z,101768.53
2023-02-08T18:46:30.393Z,101765.44
2023-02-08T18:48:59.516Z,101770.88
2023-02-08T18:51:31.943Z,101774.59
2023-02-08T18:54:00.550Z,101774.22
2023-02-08T18:56:29.729Z,101778.78
2023-02-08T18:59:00.702Z,101775.50
2023-02-08T19:01:31.482Z,101784.13
2023-02-08T19:04:04.230Z,101785.19
2023-02-08T19:06:38.427Z,101786.16
2023-02-08T19:09:08.978Z,101791.59
2023-02-08T19:11:38.843Z,101794.75
2023-02-08T19:14:09.606Z,101791.91
2023-02-08T19:16:39.716Z,101795.63
2023-02-08T19:19:08.608Z,101794.81
2023-02-08T19:21:40.343Z,101795.03
2023-02-08T19:24:08.684Z,101785.19
2023-02-08T19:26:40.560Z,101798.09
2023-02-08T19:29:13.603Z,101796.72
2023-02-08T19:31:42.661Z,101799.81
2023-02-08T19:34:12.524Z,101802.88
2023-02-08T19:36:44.478Z,101803.69
2023-02-08T19:39:14.850Z,101796.81
2023-02-08T19:41:43.556Z,101801.28
2023-02-08T19:44:15.629Z,101795.16
2023-02-08T19:46:48.259Z,101800.66
2023-02-08T19:49:16.955Z,101809.66
2023-02-08T19:51:47.504Z,101807.84
2023-02-08T19:54:18.347Z,101811.31
2023-02-08T19:56:47.975Z,101810.56
2023-02-08T19:59:20.662Z,101817.31
2023-02-08T20:01:52.123Z,101811.31
2023-02-08T20:04:20.836Z,101816.84
2023-02-08T20:06:53.435Z,101825.25
2023-02-08T20:09:22.090Z,101830.81
2023-02-08T20:12:00.081Z,101823.22
2023-02-08T20:14:31.231Z,101824.47
2023-02-08T20:17:00.005Z,101827.56
2023-02-08T20:19:28.476Z,101824.47
2023-02-08T20:21:58.239Z,101823.63
2023-02-08T20:24:26.333Z,101834.03
2023-02-08T20:26:54.542Z,101836.06
2023-02-08T20:29:26.409Z,101835.81
2023-02-08T20:31:55.936Z,101828.31
2023-02-08T20:34:24.419Z,101833.00
2023-02-08T20:37:06.434Z,101843.00
2023-02-08T20:39:37.639Z,101839.31
2023-02-08T20:42:06.525Z,101850.38
2023-02-08T20:44:35.179Z,101848.72
2023-02-08T20:47:03.450Z,101849.97
2023-02-08T20:49:32.498Z,101854.91
2023-02-08T20:52:01.291Z,101845.31
2023-02-08T20:54:30.109Z,101860.03
2023-02-08T20:57:00.130Z,101857.81
2023-02-08T20:59:28.307Z,101862.09
2023-02-08T21:01:56.838Z,101850.06
2023-02-08T21:04:26.449Z,101850.25
2023-02-08T21:06:54.616Z,101858.41
2023-02-08T21:09:23.021Z,101858.41
2023-02-08T21:11:52.014Z,101868.44
2023-02-08T21:14:23.744Z,101861.91
2023-02-08T21:16:53.957Z,101863.94
2023-02-08T21:19:22.314Z,101860.69
2023-02-08T21:21:54.703Z,101867.00
2023-02-08T21:24:24.062Z,101865.78
2023-02-08T21:26:52.754Z,101870.88
2023-02-08T21:29:22.778Z,101869.84
2023-02-08T21:31:53.905Z,101871.09
2023-02-08T21:34:23.105Z,101869.84
2023-02-08T21:36:51.595Z,101877.03
2023-02-08T21:39:19.794Z,101877.63
2023-02-08T21:41:48.381Z,101871.69
2023-02-08T21:44:16.578Z,101876.59
2023-02-08T21:46:46.317Z,101873.53
2023-02-08T21:49:31.822Z,101886.56
2023-02-08T21:52:17.277Z,101889.81
2023-02-08T21:54:46.198Z,101883.91
2023-02-08T21:57:19.321Z,101881.88
2023-02-08T21:59:49.056Z,101882.28
2023-02-08T22:02:22.049Z,101878.41
2023-02-08T22:05:08.796Z,101875.94
2023-02-08T22:07:45.218Z,101877.97
2023-02-08T22:10:17.682Z,101881.66
2023-02-08T22:12:47.556Z,101886.53
2023-02-08T22:15:18.458Z,101885.72
2023-02-08T22:17:48.614Z,101884.28
2023-02-08T22:20:16.926Z,101900.16
2023-02-08T22:22:45.575Z,101894.06
2023-02-08T22:25:14.109Z,101892.63
2023-02-08T22:27:42.718Z,101892.44
2023-02-08T22:30:12.897Z,101899.13
2023-02-08T22:32:41.635Z,101893.00
2023-02-08T22:35:12.101Z,101897.28
2023-02-08T22:37:40.429Z,101892.38
2023-02-08T22:40:09.968Z,101890.94
2023-02-08T22:42:42.065Z,101882.81
2023-02-08T22:45:11.579Z,101890.13
2023-02-08T22:47:40.264Z,101881.53
2023-02-08T22:50:10.987Z,101889.84
2023-02-08T22:52:39.313Z,101890.69
2023-02-08T22:55:08.029Z,101894.34
2023-02-08T22:57:37.857Z,101890.88
2023-02-08T23:00:11.078Z,101888.06
2023-02-08T23:02:39.341Z,101892.31
2023-02-08T23:05:08.122Z,101887.66
2023-02-08T23:07:38.696Z,101891.13
2023-02-08T23:10:07.277Z,101886.50
2023-02-08T23:12:35.601Z,101893.00
2023-02-08T23:15:04.102Z,101895.84
2023-02-08T23:17:32.440Z,101895.66
2023-02-08T23:20:00.738Z,101894.03
2023-02-08T23:22:28.825Z,101893.19
2023-02-08T23:24:58.468Z,101892.31
2023-02-08T23:27:26.603Z,101896.81
2023-02-08T23:29:54.934Z,101905.56
2023-02-08T23:32:23.126Z,101896.41
2023-02-08T23:34:51.274Z,101893.69
2023-02-08T23:37:19.424Z,101890.41
2023-02-08T23:39:47.991Z,101887.59
2023-02-08T23:42:26.699Z,101888.44
2023-02-08T23:44:55.046Z,101888.00
2023-02-08T23:47:23.966Z,101889.09
2023-02-08T23:49:52.193Z,101895.44
2023-02-08T23:52:20.628Z,101901.53
2023-02-08T23:54:49.664Z,101901.97
2023-02-08T23:57:19.821Z,101901.13
2023-02-08T23:59:48.104Z,101906.00
